createdAt,value
2018-05-11T00:00:49.809Z,11.80
2018-05-11T00:03:15.996Z,11.80
2018-05-11T00:05:42.200Z,11.80
2018-05-11T00:08:08.392Z,11.80
2018-05-11T00:10:34.572Z,11.80
2018-05-11T00:13:00.774Z,11.80
2018-05-11T00:15:26.972Z,11.70
2018-05-11T00:17:53.190Z,11.80
2018-05-11T00:20:20.128Z,11.80
2018-05-11T00:22:47.052Z,11.80
2018-05-11T00:25:13.394Z,11.70
2018-05-11T00:27:39.584Z,11.80
2018-05-11T00:30:05.808Z,11.80
2018-05-11T00:32:32.009Z,11.80
2018-05-11T00:34:58.220Z,11.80
2018-05-11T00:37:25.217Z,11.70
2018-05-11T00:39:51.425Z,11.70
2018-05-11T00:42:17.743Z,11.70
2018-05-11T00:44:44.114Z,11.60
2018-05-11T00:47:10.307Z,11.70
2018-05-11T00:49:36.513Z,11.60
2018-05-11T00:52:03.476Z,11.60
2018-05-11T00:54:29.760Z,11.60
2018-05-11T00:56:55.980Z,11.70
2018-05-11T00:59:22.225Z,11.60
2018-05-11T01:01:48.570Z,11.60
2018-05-11T01:04:14.759Z,11.60
2018-05-11T01:06:40.979Z,11.60
2018-05-11T01:09:07.197Z,11.50
2018-05-11T01:11:33.408Z,11.40
2018-05-11T01:13:59.640Z,11.40
2018-05-11T01:16:25.867Z,11.50
2018-05-11T01:18:52.197Z,11.50
2018-05-11T01:21:19.157Z,11.40
2018-05-11T01:23:45.341Z,11.40
2018-05-11T01:26:11.545Z,11.50
2018-05-11T01:28:37.777Z,11.50
2018-05-11T01:31:03.997Z,11.40
2018-05-11T01:33:30.184Z,11.50
2018-05-11T01:35:57.255Z,11.40
2018-05-11T01:38:23.482Z,11.40
2018-05-11T01:40:49.688Z,11.40
2018-05-11T01:43:16.633Z,11.40
2018-05-11T01:45:44.040Z,11.50
2018-05-11T01:48:10.342Z,11.50
2018-05-11T01:50:36.473Z,11.50
2018-05-11T01:53:02.700Z,11.50
2018-05-11T01:55:28.896Z,11.40
2018-05-11T01:57:55.969Z,11.40
2018-05-11T02:00:22.167Z,11.30
2018-05-11T02:02:48.584Z,11.30
2018-05-11T02:05:14.799Z,11.40
2018-05-11T02:07:41.012Z,11.40
2018-05-11T02:10:07.215Z,11.30
2018-05-11T02:12:33.424Z,11.30
2018-05-11T02:15:00.368Z,11.30
2018-05-11T02:17:27.321Z,11.30
2018-05-11T02:19:54.267Z,11.30
2018-05-11T02:22:21.225Z,11.30
2018-05-11T02:24:47.414Z,11.30
2018-05-11T02:27:13.722Z,11.30
2018-05-11T02:29:39.908Z,11.20
2018-05-11T02:32:06.108Z,11.20
2018-05-11T02:34:32.288Z,11.20
2018-05-11T02:36:58.499Z,11.20
2018-05-11T02:39:24.695Z,11.20
2018-05-11T02:41:51.768Z,11.20
2018-05-11T02:44:17.998Z,11.20
2018-05-11T02:46:44.203Z,11.10
2018-05-11T02:49:11.144Z,11.10
2018-05-11T02:51:38.078Z,11.00
2018-05-11T02:54:04.692Z,11.10
2018-05-11T02:56:30.931Z,11.00
2018-05-11T02:58:57.107Z,11.00
2018-05-11T03:01:23.334Z,11.00
2018-05-11T03:03:50.338Z,10.90
2018-05-11T03:06:16.542Z,10.90
2018-05-11T03:08:42.761Z,10.90
2018-05-11T03:11:08.950Z,10.90
2018-05-11T03:13:35.881Z,10.80
2018-05-11T03:16:02.073Z,10.80
2018-05-11T03:18:28.333Z,10.70
2018-05-11T03:20:54.487Z,10.70
2018-05-11T03:23:21.412Z,10.70
2018-05-11T03:25:47.616Z,10.60
2018-05-11T03:28:13.826Z,10.60
2018-05-11T03:30:40.013Z,10.50
2018-05-11T03:33:06.944Z,10.40
2018-05-11T03:35:33.149Z,10.40
2018-05-11T03:37:59.437Z,10.40
2018-05-11T03:40:25.678Z,10.40
2018-05-11T03:42:51.872Z,10.40
2018-05-11T03:45:18.816Z,10.40
2018-05-11T03:47:45.754Z,10.40
2018-05-11T03:50:11.959Z,10.40
2018-05-11T03:52:38.160Z,10.40
2018-05-11T03:55:04.353Z,10.50
2018-05-11T03:57:31.296Z,10.60
2018-05-11T03:59:57.597Z,10.60
2018-05-11T04:02:36.003Z,10.60
2018-05-11T04:05:14.352Z,10.60
2018-05-11T04:07:52.805Z,10.60
2018-05-11T04:10:18.996Z,10.70
2018-05-11T04:12:45.981Z,10.80
2018-05-11T04:15:12.168Z,10.80
2018-05-11T04:17:38.386Z,10.90
2018-05-11T04:20:04.590Z,10.90
2018-05-11T04:22:31.513Z,10.90
2018-05-11T04:24:57.732Z,10.90
2018-05-11T04:27:23.928Z,11.00
2018-05-11T04:29:50.148Z,10.90
2018-05-11T04:32:16.340Z,11.00
2018-05-11T04:34:42.981Z,11.00
2018-05-11T04:37:09.169Z,11.00
2018-05-11T04:39:36.092Z,11.10
2018-05-11T04:42:02.327Z,11.10
2018-05-11T04:44:28.513Z,11.10
2018-05-11T04:46:54.753Z,11.10
2018-05-11T04:49:20.945Z,11.10
2018-05-11T04:51:47.768Z,11.20
2018-05-11T04:54:14.732Z,11.20
2018-05-11T04:56:40.927Z,11.10
2018-05-11T04:59:07.134Z,11.00
2018-05-11T05:01:33.332Z,11.00
2018-05-11T05:03:59.548Z,11.10
2018-05-11T05:06:25.729Z,11.20
2018-05-11T05:08:52.466Z,11.30
2018-05-11T05:11:18.661Z,11.20
2018-05-11T05:13:44.887Z,11.20
2018-05-11T05:16:11.142Z,11.20
2018-05-11T05:18:37.351Z,11.30
2018-05-11T05:21:03.573Z,11.40
2018-05-11T05:23:29.768Z,11.40
2018-05-11T05:25:56.735Z,11.50
2018-05-11T05:28:22.959Z,11.50
2018-05-11T05:30:49.189Z,11.50
2018-05-11T05:33:15.378Z,11.60
2018-05-11T05:35:41.769Z,11.60
2018-05-11T05:38:07.976Z,11.70
2018-05-11T05:40:34.157Z,11.80
2018-05-11T05:43:00.377Z,11.80
2018-05-11T05:45:26.563Z,11.90
2018-05-11T05:47:52.795Z,11.80
2018-05-11T05:50:18.988Z,11.90
2018-05-11T05:52:45.328Z,12.00
2018-05-11T05:55:11.605Z,12.10
2018-05-11T05:57:37.860Z,12.30
2018-05-11T06:00:04.124Z,12.50
2018-05-11T06:02:31.148Z,12.30
2018-05-11T06:04:57.333Z,12.30
2018-05-11T06:07:23.559Z,12.30
2018-05-11T06:09:49.794Z,12.50
2018-05-11T06:12:16.001Z,12.40
2018-05-11T06:14:42.945Z,12.60
2018-05-11T06:17:09.897Z,12.60
2018-05-11T06:19:46.188Z,12.50
2018-05-11T06:22:12.563Z,12.80
2018-05-11T06:24:38.748Z,12.80
2018-05-11T06:27:04.988Z,13.00
2018-05-11T06:29:31.176Z,12.90
2018-05-11T06:31:58.097Z,13.10
2018-05-11T06:34:24.339Z,13.10
2018-05-11T06:36:50.516Z,13.10
2018-05-11T06:39:16.722Z,13.20
2018-05-11T06:41:42.901Z,13.20
2018-05-11T06:44:09.104Z,13.20
2018-05-11T06:46:35.373Z,13.20
2018-05-11T06:49:01.561Z,13.10
2018-05-11T06:51:27.900Z,13.10
2018-05-11T06:53:54.112Z,13.10
2018-05-11T06:56:20.317Z,13.30
2018-05-11T06:58:46.912Z,13.50
2018-05-11T07:01:13.132Z,13.70
2018-05-11T07:03:39.348Z,13.80
2018-05-11T07:06:05.551Z,14.10
2018-05-11T07:08:31.753Z,14.50
2018-05-11T07:10:58.815Z,14.90
2018-05-11T07:13:25.013Z,14.90
2018-05-11T07:15:51.388Z,14.90
2018-05-11T07:18:17.592Z,14.80
2018-05-11T07:20:44.535Z,14.70
2018-05-11T07:23:10.936Z,14.70
2018-05-11T07:25:37.131Z,14.70
2018-05-11T07:28:03.355Z,14.60
2018-05-11T07:30:29.612Z,14.40
2018-05-11T07:32:55.918Z,14.40
2018-05-11T07:35:22.104Z,14.50
2018-05-11T07:37:49.052Z,15.00
2018-05-11T07:40:16.852Z,14.80
2018-05-11T07:42:43.048Z,14.80
2018-05-11T07:45:09.968Z,15.20
2018-05-11T07:47:36.230Z,15.20
2018-05-11T07:50:03.293Z,14.80
2018-05-11T07:52:29.502Z,14.80
2018-05-11T07:54:56.468Z,15.00
2018-05-11T07:57:22.702Z,15.00
2018-05-11T07:59:48.892Z,15.00
2018-05-11T08:02:15.088Z,15.00
2018-05-11T08:04:41.299Z,14.90
2018-05-11T08:07:07.652Z,14.90
2018-05-11T08:09:34.741Z,15.10
2018-05-11T08:12:01.692Z,15.30
2018-05-11T08:14:28.003Z,15.30
2018-05-11T08:16:54.113Z,15.30
2018-05-11T08:19:20.348Z,15.10
2018-05-11T08:21:46.617Z,14.90
2018-05-11T08:24:13.564Z,14.80
2018-05-11T08:26:40.604Z,14.90
2018-05-11T08:29:06.792Z,14.90
2018-05-11T08:31:33.020Z,15.00
2018-05-11T08:33:59.240Z,15.10
2018-05-11T08:36:25.448Z,15.40
2018-05-11T08:38:51.807Z,15.50
2018-05-11T08:41:18.036Z,15.50
2018-05-11T08:43:44.220Z,15.50
2018-05-11T08:46:10.442Z,15.60
2018-05-11T08:48:37.375Z,16.00
2018-05-11T08:51:04.339Z,15.70
2018-05-11T08:53:31.332Z,15.90
2018-05-11T08:55:57.566Z,15.90
2018-05-11T08:58:23.894Z,16.10
2018-05-11T09:00:50.543Z,16.30
2018-05-11T09:03:16.740Z,16.10
2018-05-11T09:05:42.996Z,16.40
2018-05-11T09:08:09.188Z,16.70
2018-05-11T09:10:35.378Z,16.50
2018-05-11T09:13:01.708Z,16.50
2018-05-11T09:15:27.905Z,16.50
2018-05-11T09:17:54.186Z,16.40
2018-05-11T09:20:21.724Z,16.20
2018-05-11T09:22:47.922Z,16.20
2018-05-11T09:25:14.127Z,16.10
2018-05-11T09:27:40.332Z,16.10
2018-05-11T09:30:07.278Z,16.10
2018-05-11T09:32:34.405Z,16.10
2018-05-11T09:35:00.600Z,16.10
2018-05-11T09:37:26.808Z,16.20
2018-05-11T09:39:53.195Z,16.10
2018-05-11T09:42:19.320Z,16.30
2018-05-11T09:44:45.511Z,16.50
2018-05-11T09:47:11.771Z,16.50
2018-05-11T09:49:38.014Z,16.60
2018-05-11T09:52:04.328Z,16.50
2018-05-11T09:54:30.513Z,16.50
2018-05-11T09:56:56.699Z,16.50
2018-05-11T09:59:23.743Z,16.50
2018-05-11T10:01:50.323Z,16.40
2018-05-11T10:04:16.513Z,16.40
2018-05-11T10:06:42.703Z,16.50
2018-05-11T10:09:08.948Z,16.60
2018-05-11T10:11:35.156Z,16.80
2018-05-11T10:14:01.371Z,16.80
2018-05-11T10:16:27.603Z,16.40
2018-05-11T10:18:54.039Z,16.60
2018-05-11T10:21:20.261Z,16.60
2018-05-11T10:23:46.440Z,16.40
2018-05-11T10:26:12.857Z,16.40
2018-05-11T10:28:39.139Z,16.60
2018-05-11T10:31:05.288Z,16.80
2018-05-11T10:33:32.572Z,16.80
2018-05-11T10:35:58.766Z,17.00
2018-05-11T10:38:24.964Z,16.80
2018-05-11T10:40:52.324Z,17.10
2018-05-11T10:43:19.274Z,17.40
2018-05-11T10:45:46.209Z,17.30
2018-05-11T10:48:13.172Z,17.20
2018-05-11T10:50:40.129Z,17.00
2018-05-11T10:53:06.320Z,17.00
2018-05-11T10:55:32.701Z,17.10
2018-05-11T10:57:58.878Z,17.20
2018-05-11T11:00:25.072Z,17.00
2018-05-11T11:02:51.391Z,17.10
2018-05-11T11:05:17.586Z,17.40
2018-05-11T11:07:44.559Z,17.20
2018-05-11T11:10:10.777Z,17.20
2018-05-11T11:12:36.988Z,17.20
2018-05-11T11:15:03.986Z,17.30
2018-05-11T11:17:30.204Z,17.30
2018-05-11T11:19:56.408Z,17.40
2018-05-11T11:22:22.605Z,17.50
2018-05-11T11:24:48.792Z,17.50
2018-05-11T11:27:14.992Z,17.40
2018-05-11T11:29:41.944Z,17.90
2018-05-11T11:32:08.152Z,17.90
2018-05-11T11:34:35.115Z,18.30
2018-05-11T11:37:02.062Z,18.60
2018-05-11T11:39:28.269Z,18.50
2018-05-11T11:41:54.833Z,18.40
2018-05-11T11:44:21.001Z,18.40
2018-05-11T11:46:47.213Z,18.50
2018-05-11T11:49:13.419Z,18.50
2018-05-11T11:51:39.728Z,18.50
2018-05-11T11:54:06.664Z,18.60
2018-05-11T11:56:33.604Z,18.40
2018-05-11T11:58:59.798Z,18.40
2018-05-11T12:01:25.992Z,18.30
2018-05-11T12:03:52.303Z,18.40
2018-05-11T12:06:19.264Z,18.70
2018-05-11T12:08:46.187Z,18.90
2018-05-11T12:11:13.563Z,18.50
2018-05-11T12:13:40.488Z,18.20
2018-05-11T12:16:07.577Z,18.40
2018-05-11T12:18:33.832Z,18.40
2018-05-11T12:21:00.024Z,18.30
2018-05-11T12:23:26.968Z,18.40
2018-05-11T12:25:53.201Z,18.30
2018-05-11T12:28:19.545Z,18.60
2018-05-11T12:30:45.755Z,18.60
2018-05-11T12:33:13.437Z,18.80
2018-05-11T12:35:39.721Z,18.80
2018-05-11T12:38:05.930Z,18.80
2018-05-11T12:40:32.155Z,18.60
2018-05-11T12:42:58.384Z,18.40
2018-05-11T12:45:24.613Z,18.60
2018-05-11T12:47:50.800Z,18.60
2018-05-11T12:50:17.002Z,18.70
2018-05-11T12:52:43.209Z,18.60
2018-05-11T12:55:09.420Z,18.60
2018-05-11T12:57:36.064Z,18.70
2018-05-11T13:00:02.334Z,18.80
2018-05-11T13:02:29.269Z,18.60
2018-05-11T13:04:55.479Z,18.50
2018-05-11T13:07:21.684Z,18.40
2018-05-11T13:09:47.884Z,18.30
2018-05-11T13:12:14.084Z,18.70
2018-05-11T13:14:40.405Z,18.90
2018-05-11T13:17:06.665Z,18.90
2018-05-11T13:19:33.619Z,18.70
2018-05-11T13:21:59.813Z,18.60
2018-05-11T13:24:26.012Z,18.70
2018-05-11T13:26:52.257Z,18.90
2018-05-11T13:29:18.472Z,18.70
2018-05-11T13:31:44.723Z,18.70
2018-05-11T13:34:10.939Z,18.70
2018-05-11T13:36:37.147Z,18.70
2018-05-11T13:39:03.417Z,18.80
2018-05-11T13:41:29.640Z,18.90
2018-05-11T13:43:56.280Z,18.80
2018-05-11T13:46:22.476Z,18.50
2018-05-11T13:48:48.683Z,18.50
2018-05-11T13:51:14.879Z,18.50
2018-05-11T13:53:41.196Z,18.40
2018-05-11T13:56:07.471Z,18.50
2018-05-11T13:58:33.619Z,18.40
2018-05-11T14:00:59.840Z,18.50
2018-05-11T14:03:26.181Z,18.50
2018-05-11T14:05:52.435Z,18.50
2018-05-11T14:08:18.628Z,18.70
2018-05-11T14:10:44.869Z,18.50
2018-05-11T14:13:11.084Z,18.70
2018-05-11T14:15:37.284Z,18.60
2018-05-11T14:18:04.422Z,18.50
2018-05-11T14:20:31.372Z,18.60
2018-05-11T14:22:58.299Z,18.80
2018-05-11T14:25:24.512Z,18.80
2018-05-11T14:27:50.741Z,19.10
2018-05-11T14:30:16.932Z,19.30
2018-05-11T14:32:43.116Z,19.40
2018-05-11T14:35:09.324Z,19.40
2018-05-11T14:37:35.504Z,18.90
2018-05-11T14:40:02.514Z,18.60
2018-05-11T14:42:28.704Z,18.60
2018-05-11T14:44:54.925Z,18.50
2018-05-11T14:47:21.242Z,18.40
2018-05-11T14:49:48.196Z,18.50
2018-05-11T14:52:14.384Z,18.50
2018-05-11T14:54:40.752Z,18.50
2018-05-11T14:57:06.940Z,18.40
2018-05-11T14:59:33.124Z,18.50
2018-05-11T15:01:59.324Z,18.50
2018-05-11T15:04:26.263Z,18.50
2018-05-11T15:06:53.344Z,18.50
2018-05-11T15:09:19.926Z,18.50
2018-05-11T15:11:46.127Z,18.60
2018-05-11T15:14:12.624Z,18.50
2018-05-11T15:16:39.672Z,18.60
2018-05-11T15:19:06.648Z,18.70
2018-05-11T15:21:32.836Z,18.70
2018-05-11T15:23:59.833Z,18.80
2018-05-11T15:26:26.032Z,18.80
2018-05-11T15:28:52.244Z,18.80
2018-05-11T15:31:19.365Z,18.50
2018-05-11T15:33:45.476Z,18.50
2018-05-11T15:36:11.822Z,18.30
2018-05-11T15:38:38.040Z,18.40
2018-05-11T15:41:04.237Z,18.40
2018-05-11T15:43:30.458Z,18.50
2018-05-11T15:45:56.756Z,18.60
2018-05-11T15:48:22.951Z,18.50
2018-05-11T15:50:49.179Z,18.10
2018-05-11T15:53:15.378Z,18.10
2018-05-11T15:55:41.620Z,18.10
2018-05-11T15:58:07.828Z,18.20
2018-05-11T16:00:34.131Z,18.10
2018-05-11T16:03:00.326Z,18.10
2018-05-11T16:05:26.571Z,18.10
2018-05-11T16:07:52.926Z,18.20
2018-05-11T16:10:19.904Z,18.20
2018-05-11T16:12:46.149Z,18.20
2018-05-11T16:15:12.496Z,18.00
2018-05-11T16:17:38.755Z,17.90
2018-05-11T16:20:04.960Z,17.90
2018-05-11T16:22:31.167Z,17.90
2018-05-11T16:24:57.381Z,17.90
2018-05-11T16:27:23.583Z,18.00
2018-05-11T16:29:50.689Z,18.00
2018-05-11T16:32:16.923Z,18.00
2018-05-11T16:34:43.141Z,18.00
2018-05-11T16:37:09.461Z,18.00
2018-05-11T16:39:35.750Z,17.90
2018-05-11T16:42:01.910Z,17.90
2018-05-11T16:44:28.139Z,17.90
2018-05-11T16:46:54.436Z,18.00
2018-05-11T16:49:21.408Z,18.10
2018-05-11T16:51:47.635Z,18.00
2018-05-11T16:54:13.895Z,18.00
2018-05-11T16:56:40.096Z,18.10
2018-05-11T16:59:06.296Z,18.10
2018-05-11T17:01:32.566Z,18.10
2018-05-11T17:03:58.829Z,18.10
2018-05-11T17:06:25.102Z,17.90
2018-05-11T17:08:52.190Z,17.90
2018-05-11T17:11:18.677Z,17.90
2018-05-11T17:13:45.940Z,17.90
2018-05-11T17:16:13.019Z,17.90
2018-05-11T17:18:39.400Z,17.80
2018-05-11T17:21:05.716Z,17.90
2018-05-11T17:23:31.915Z,18.00
2018-05-11T17:25:58.172Z,17.80
2018-05-11T17:28:25.208Z,17.90
2018-05-11T17:30:51.430Z,17.80
2018-05-11T17:33:17.720Z,17.80
2018-05-11T17:35:44.673Z,17.80
2018-05-11T17:38:11.789Z,17.80
2018-05-11T17:40:38.005Z,17.70
2018-05-11T17:43:04.272Z,17.70
2018-05-11T17:45:30.611Z,17.60
2018-05-11T17:47:57.562Z,17.50
2018-05-11T17:50:23.800Z,17.50
2018-05-11T17:52:50.079Z,17.50
2018-05-11T17:55:16.302Z,17.50
2018-05-11T17:57:42.511Z,17.60
2018-05-11T18:00:08.757Z,17.50
2018-05-11T18:02:34.960Z,17.50
2018-05-11T18:05:01.719Z,17.50
2018-05-11T18:07:27.968Z,17.40
2018-05-11T18:09:54.212Z,17.40
2018-05-11T18:12:20.430Z,17.40
2018-05-11T18:14:46.638Z,17.30
2018-05-11T18:17:12.852Z,17.40
2018-05-11T18:19:39.092Z,17.30
2018-05-11T18:22:06.950Z,17.30
2018-05-11T18:24:33.153Z,17.30
2018-05-11T18:26:59.391Z,17.20
2018-05-11T18:29:25.604Z,17.20
2018-05-11T18:31:52.583Z,17.20
2018-05-11T18:34:18.850Z,17.10
2018-05-11T18:36:45.044Z,17.20
2018-05-11T18:39:11.803Z,17.10
2018-05-11T18:41:38.059Z,17.10
2018-05-11T18:44:05.032Z,17.00
2018-05-11T18:46:31.337Z,17.00
2018-05-11T18:48:57.537Z,17.00
2018-05-11T18:51:23.752Z,17.00
2018-05-11T18:53:50.252Z,17.00
2018-05-11T18:56:16.270Z,16.90
2018-05-11T18:58:42.460Z,16.90
2018-05-11T19:01:08.708Z,16.70
2018-05-11T19:03:36.771Z,16.40
2018-05-11T19:06:03.013Z,16.40
2018-05-11T19:08:29.962Z,16.40
2018-05-11T19:10:57.085Z,16.40
2018-05-11T19:13:23.305Z,16.40
2018-05-11T19:15:49.541Z,16.40
2018-05-11T19:18:15.899Z,16.40
2018-05-11T19:20:43.324Z,16.30
2018-05-11T19:23:09.622Z,16.30
2018-05-11T19:25:36.879Z,16.20
2018-05-11T19:28:03.212Z,16.10
2018-05-11T19:30:29.480Z,16.10
2018-05-11T19:32:55.704Z,16.00
2018-05-11T19:35:21.969Z,16.00
2018-05-11T19:37:48.957Z,15.70
2018-05-11T19:40:15.238Z,15.70
2018-05-11T19:42:42.168Z,15.50
2018-05-11T19:45:08.516Z,15.50
2018-05-11T19:47:35.511Z,15.40
2018-05-11T19:50:01.726Z,15.40
2018-05-11T19:52:27.944Z,15.40
2018-05-11T19:54:54.159Z,15.30
2018-05-11T19:57:21.120Z,15.10
2018-05-11T19:59:47.345Z,15.00
2018-05-11T20:02:13.961Z,15.00
2018-05-11T20:04:40.819Z,14.90
2018-05-11T20:07:07.089Z,14.80
2018-05-11T20:09:33.358Z,14.80
2018-05-11T20:11:59.616Z,14.80
2018-05-11T20:14:26.554Z,14.80
2018-05-11T20:16:53.513Z,14.70
2018-05-11T20:19:19.837Z,14.70
2018-05-11T20:21:46.808Z,14.50
2018-05-11T20:24:13.084Z,14.50
2018-05-11T20:26:39.543Z,14.60
2018-05-11T20:29:06.520Z,14.60
2018-05-11T20:31:32.753Z,14.60
2018-05-11T20:33:58.976Z,14.50
2018-05-11T20:36:25.186Z,14.50
2018-05-11T20:38:52.149Z,14.40
2018-05-11T20:41:18.370Z,14.40
2018-05-11T20:43:44.594Z,14.30
2018-05-11T20:46:10.846Z,14.20
2018-05-11T20:48:37.181Z,14.10
2018-05-11T20:51:03.413Z,14.10
2018-05-11T20:53:29.637Z,14.00
2018-05-11T20:55:55.905Z,14.00
2018-05-11T20:58:22.108Z,13.90
2018-05-11T21:00:48.857Z,13.80
2018-05-11T21:03:15.200Z,13.80
2018-05-11T21:05:41.404Z,13.80
2018-05-11T21:08:07.699Z,13.70
2018-05-11T21:10:34.686Z,13.70
2018-05-11T21:13:00.967Z,13.70
2018-05-11T21:15:27.950Z,13.50
2018-05-11T21:17:54.162Z,13.50
2018-05-11T21:20:20.888Z,13.50
2018-05-11T21:22:47.206Z,13.40
2018-05-11T21:25:13.547Z,13.50
2018-05-11T21:27:39.790Z,13.50
2018-05-11T21:30:06.031Z,13.50
2018-05-11T21:32:32.265Z,13.50
2018-05-11T21:34:58.499Z,13.60
2018-05-11T21:37:24.859Z,13.70
2018-05-11T21:39:51.868Z,13.80
2018-05-11T21:42:18.110Z,13.80
2018-05-11T21:44:44.396Z,13.90
2018-05-11T21:47:11.353Z,13.90
2018-05-11T21:49:38.316Z,13.90
2018-05-11T21:52:04.540Z,13.90
2018-05-11T21:54:30.755Z,13.90
2018-05-11T21:56:57.777Z,13.90
2018-05-11T21:59:23.988Z,13.90
2018-05-11T22:01:50.340Z,13.90
2018-05-11T22:04:17.002Z,13.90
2018-05-11T22:06:43.961Z,13.80
2018-05-11T22:09:10.180Z,13.80
2018-05-11T22:11:37.322Z,13.90
2018-05-11T22:14:04.324Z,14.00
2018-05-11T22:16:30.541Z,13.90
2018-05-11T22:18:56.762Z,14.00
2018-05-11T22:21:22.976Z,14.00
2018-05-11T22:23:49.172Z,14.00
2018-05-11T22:26:15.434Z,13.90
2018-05-11T22:28:41.694Z,13.90
2018-05-11T22:31:07.960Z,13.80
2018-05-11T22:33:34.182Z,13.90
2018-05-11T22:36:00.386Z,14.00
2018-05-11T22:38:26.633Z,14.00
2018-05-11T22:40:53.022Z,14.00
2018-05-11T22:43:19.216Z,14.00
2018-05-11T22:45:45.427Z,14.00
2018-05-11T22:48:11.688Z,14.10
2018-05-11T22:50:37.897Z,14.10
2018-05-11T22:53:04.140Z,14.10
2018-05-11T22:55:31.089Z,14.10
2018-05-11T22:57:58.449Z,14.10
2018-05-11T23:00:36.588Z,14.10
2018-05-11T23:03:03.250Z,14.10
2018-05-11T23:05:29.464Z,14.10
2018-05-11T23:07:55.895Z,14.10
2018-05-11T23:10:22.133Z,14.00
2018-05-11T23:12:48.432Z,14.00
2018-05-11T23:15:15.024Z,14.00
2018-05-11T23:17:41.222Z,14.10
2018-05-11T23:20:07.438Z,14.10
2018-05-11T23:22:34.874Z,14.10
2018-05-11T23:25:01.855Z,14.00
2018-05-11T23:27:28.078Z,14.00
2018-05-11T23:29:54.329Z,14.00
2018-05-11T23:32:20.540Z,14.00
2018-05-11T23:34:47.277Z,13.90
2018-05-11T23:37:13.473Z,14.00
2018-05-11T23:39:40.465Z,13.90
2018-05-11T23:42:06.773Z,13.90
2018-05-11T23:44:32.987Z,13.90
2018-05-11T23:46:59.924Z,13.80
2018-05-11T23:49:26.954Z,13.80
2018-05-11T23:51:53.264Z,13.70
2018-05-11T23:54:19.519Z,13.80
2018-05-11T23:56:46.485Z,13.90
2018-05-11T23:59:13.720Z,13.90
